Time;durP1;ratioP1;P1;durP2;ratioP2;P2;SDS_P1;SDS_P2;PMS_P1;PMS_P2;Temp;Humidity;BMP_temperature;BMP_pressure;BME280_temperature;BME280_humidity;BME280_pressure;Samples;Min_cycle;Max_cycle;Signal;HPM_P1;HPM_P2
2022/04/13 00:00:15;;;;;;;;;;;;;;;;;;2073280;28;19913;-79
2022/04/13 00:01:15;;;;;;;;;;;;;;;;;;2082074;28;19913;-80
2022/04/13 00:02:15;;;;;;;;;;;;;;;;;;2081958;28;20028;-81
2022/04/13 00:03:18;;;;;;;;;;;;;;;;;;2082068;28;19913;-81
2022/04/13 00:04:19;;;;;;;;;;;;;;;;;;2064596;28;19918;-81
2022/04/13 00:05:19;;;;;;;;;;;;;;;;;;2064851;28;19973;-81
2022/04/13 00:06:19;;;;;;;;;;;;;;;;;;2081351;28;19921;-81
2022/04/13 00:07:20;;;;;;;;;;;;;;;;;;2081697;28;19913;-80
2022/04/13 00:08:22;;;;;;;;;;;;;;;;;;2081603;28;19920;-80
2022/04/13 00:09:23;;;;;;;;;;;;;;;;;;2081562;28;19948;-81
2022/04/13 00:10:23;;;;;;;;;;;;;;;;;;2081453;28;20030;-81
2022/04/13 00:11:25;;;;;;;;;;;;;;;;;;2081451;28;19913;-81
2022/04/13 00:12:26;;;;;;;;;;;;;;;;;;2081592;28;20278;-81
2022/04/13 00:13:26;;;;;;;;;;;;;;;;;;2081517;28;20195;-81
2022/04/13 00:14:27;;;;;;;;;;;;;;;;;;2081507;28;19924;-81
2022/04/13 00:15:27;;;;;;;;;;;;;;;;;;2081370;28;20000;-82
2022/04/13 00:16:35;;;;;;;;;;;;;;;;;;2081500;28;19913;-80
2022/04/13 00:17:36;;;;;;;;;;;;;;;;;;2081494;28;19917;-80
2022/04/13 00:18:39;;;;;;;;;;;;;;;;;;2072765;28;20301;-81
2022/04/13 00:19:39;;;;;;;;;;;;;;;;;;2072997;28;20162;-81
2022/04/13 00:20:40;;;;;;;;;;;;;;;;;;2081304;28;19917;-80
2022/04/13 00:21:43;;;;;;;;;;;;;;;;;;2072783;28;20003;-81
2022/04/13 00:22:43;;;;;;;;;;;;;;;;;;2073243;28;20440;-80
2022/04/13 00:23:44;;;;;;;;;;;;;;;;;;2080847;28;19959;-80
2022/04/13 00:24:44;;;;;;;;;;;;;;;;;;2072796;28;19914;-80
2022/04/13 00:26:10;;;;;;;;;;;;;;;;;;2072561;28;19918;-81
2022/04/13 00:27:13;;;;;;;;;;;;;;;;;;2081463;28;19941;-80
2022/04/13 00:28:16;;;;;;;;;;;;;;;;;;2081465;28;19913;-80
2022/04/13 00:29:17;;;;;;;;;;;;;;;;;;2080892;28;20357;-80
2022/04/13 00:30:44;;;;;;;;;;;;;;;;;;2080850;28;19996;-82
2022/04/13 00:31:44;;;;;;;;;;;;;;;;;;2069621;28;20015;-81
2022/04/13 00:32:44;;;;;;;;;;;;;;;;;;2072931;28;20420;-80
2022/04/13 00:33:51;;;;;;;;;;;;;;;;;;2081284;28;19913;-80
2022/04/13 00:34:51;;;;;;;;;;;;;;;;;;2081366;28;19973;-80
2022/04/13 00:35:53;;;;;;;;;;;;;;;;;;2081247;28;20289;-80
2022/04/13 00:36:56;;;;;;;;;;;;;;;;;;2081338;28;20026;-81
2022/04/13 00:37:57;;;;;;;;;;;;;;;;;;2081137;28;19913;-81
2022/04/13 00:38:58;;;;;;;;;;;;;;;;;;2072762;28;19968;-81
2022/04/13 00:39:58;;;;;;;;;;;;;;;;;;2072816;28;19999;-80
2022/04/13 00:41:02;;;;;;;;;;;;;;;;;;2080969;28;19939;-80
2022/04/13 00:42:06;;;;;;;;;;;;;;;;;;2080845;28;19913;-80
2022/04/13 00:43:07;;;;;;;;;;;;;;;;;;2080979;28;19913;-81
2022/04/13 00:44:08;;;;;;;;;;;;;;;;;;2081230;28;19920;-82
2022/04/13 00:45:11;;;;;;;;;;;;;;;;;;2080041;28;19924;-82
2022/04/13 00:46:14;;;;;;;;;;;;;;;;;;2080665;28;20004;-81
2022/04/13 00:47:14;;;;;;;;;;;;;;;;;;2081370;28;19914;-80
2022/04/13 00:48:40;;;;;;;;;;;;;;;;;;2072645;28;19918;-80
2022/04/13 00:49:43;;;;;;;;;;;;;;;;;;2076251;28;19921;-81
2022/04/13 00:50:54;;;;;;;;;;;;;;;;;;2081001;28;19982;-81
2022/04/13 00:52:04;;;;;;;;;;;;;;;;;;2084373;28;19955;-81
2022/04/13 00:53:10;;;;;;;;;;;;;;;;;;2081439;28;19975;-81
2022/04/13 00:54:12;;;;;;;;;;;;;;;;;;2081012;28;20330;-81
2022/04/13 00:55:16;;;;;;;;;;;;;;;;;;2081212;28;19989;-81
2022/04/13 00:56:21;;;;;;;;;;;;;;;;;;2081168;28;19913;-81
2022/04/13 00:57:21;;;;;;;;;;;;;;;;;;2080994;28;20260;-80
2022/04/13 00:58:26;;;;;;;;;;;;;;;;;;2072600;28;20357;-81
2022/04/13 00:59:27;;;;;;;;;;;;;;;;;;2073332;28;19913;-80
2022/04/13 01:00:31;;;;;;;;;;;;;;;;;;2080968;28;20035;-80
2022/04/13 01:01:34;;;;;;;;;;;;;;;;;;2080963;28;20362;-80
2022/04/13 01:02:35;;;;;;;;;;;;;;;;;;2080322;28;19913;-80
2022/04/13 01:03:36;;;;;;;;;;;;;;;;;;2080235;28;19914;-80
2022/04/13 01:04:40;;;;;;;;;;;;;;;;;;2072090;28;20044;-81
2022/04/13 01:05:40;;;;;;;;;;;;;;;;;;2064177;28;19989;-80
2022/04/13 01:06:41;;;;;;;;;;;;;;;;;;2072172;28;20403;-81
2022/04/13 01:07:42;;;;;;;;;;;;;;;;;;2081034;28;20416;-80
2022/04/13 01:08:42;;;;;;;;;;;;;;;;;;2080825;28;19978;-81
2022/04/13 01:09:43;;;;;;;;;;;;;;;;;;2072218;28;20325;-80
2022/04/13 01:10:44;;;;;;;;;;;;;;;;;;2063827;28;19925;-80
2022/04/13 01:11:45;;;;;;;;;;;;;;;;;;2072468;28;20017;-80
2022/04/13 01:12:45;;;;;;;;;;;;;;;;;;2080829;28;20415;-81
2022/04/13 01:13:45;;;;;;;;;;;;;;;;;;2080891;28;20400;-81
2022/04/13 01:14:46;;;;;;;;;;;;;;;;;;2080861;28;20346;-80
2022/04/13 01:15:46;;;;;;;;;;;;;;;;;;2080686;28;19913;-80
2022/04/13 01:16:46;;;;;;;;;;;;;;;;;;2080772;28;19945;-80
2022/04/13 01:17:48;;;;;;;;;;;;;;;;;;2080968;28;19953;-81
2022/04/13 01:18:48;;;;;;;;;;;;;;;;;;2081194;28;20570;-79
2022/04/13 01:19:49;;;;;;;;;;;;;;;;;;2081396;28;20003;-80
2022/04/13 01:20:52;;;;;;;;;;;;;;;;;;2081241;28;20383;-80
2022/04/13 01:21:58;;;;;;;;;;;;;;;;;;2081436;28;20191;-80
2022/04/13 01:22:58;;;;;;;;;;;;;;;;;;2081404;28;20374;-80
2022/04/13 01:23:58;;;;;;;;;;;;;;;;;;2081137;28;19912;-80
2022/04/13 01:24:58;;;;;;;;;;;;;;;;;;2081328;28;20016;-79
2022/04/13 01:25:59;;;;;;;;;;;;;;;;;;2081248;28;19913;-79
2022/04/13 01:26:59;;;;;;;;;;;;;;;;;;2081264;28;20024;-79
2022/04/13 01:27:59;;;;;;;;;;;;;;;;;;2080836;28;19956;-80
2022/04/13 01:28:59;;;;;;;;;;;;;;;;;;2081063;28;19917;-79
2022/04/13 01:30:00;;;;;;;;;;;;;;;;;;2081407;28;19936;-79
2022/04/13 01:31:00;;;;;;;;;;;;;;;;;;2080909;28;19944;-80
2022/04/13 01:32:00;;;;;;;;;;;;;;;;;;2081008;28;20062;-80
2022/04/13 01:33:01;;;;;;;;;;;;;;;;;;2081498;28;19913;-80
2022/04/13 01:34:02;;;;;;;;;;;;;;;;;;2081305;28;19913;-79
2022/04/13 01:35:02;;;;;;;;;;;;;;;;;;2072860;28;19928;-79
2022/04/13 01:36:03;;;;;;;;;;;;;;;;;;2072792;28;19944;-79
2022/04/13 01:37:03;;;;;;;;;;;;;;;;;;2081486;28;19959;-80
2022/04/13 01:38:04;;;;;;;;;;;;;;;;;;2081344;28;20360;-79
2022/04/13 01:39:05;;;;;;;;;;;;;;;;;;2081457;28;19913;-79
2022/04/13 01:40:05;;;;;;;;;;;;;;;;;;2081371;28;19924;-79
2022/04/13 01:41:05;;;;;;;;;;;;;;;;;;2081552;28;19924;-80
2022/04/13 01:42:06;;;;;;;;;;;;;;;;;;2081403;28;20338;-79
2022/04/13 01:43:06;;;;;;;;;;;;;;;;;;2081457;28;19917;-79
2022/04/13 01:44:06;;;;;;;;;;;;;;;;;;2081334;28;19917;-79
2022/04/13 01:45:07;;;;;;;;;;;;;;;;;;2081362;28;20337;-80
2022/04/13 01:46:07;;;;;;;;;;;;;;;;;;2072625;28;20020;-80
2022/04/13 01:47:08;;;;;;;;;;;;;;;;;;2064620;28;19914;-79
2022/04/13 01:48:09;;;;;;;;;;;;;;;;;;2072830;28;19913;-79
2022/04/13 01:49:10;;;;;;;;;;;;;;;;;;2080959;28;19913;-80
2022/04/13 01:50:10;;;;;;;;;;;;;;;;;;2072849;28;19953;-81
2022/04/13 01:51:10;;;;;;;;;;;;;;;;;;2072920;28;20424;-80
2022/04/13 01:52:11;;;;;;;;;;;;;;;;;;2081483;28;20366;-80
2022/04/13 01:53:12;;;;;;;;;;;;;;;;;;2081315;28;19914;-80
2022/04/13 01:54:12;;;;;;;;;;;;;;;;;;2072467;28;19913;-80
2022/04/13 01:55:12;;;;;;;;;;;;;;;;;;2072628;28;19917;-81
2022/04/13 01:56:12;;;;;;;;;;;;;;;;;;2081371;28;19917;-80
2022/04/13 01:57:13;;;;;;;;;;;;;;;;;;2081246;28;19928;-80
2022/04/13 01:58:13;;;;;;;;;;;;;;;;;;2081280;28;19917;-80
2022/04/13 01:59:13;;;;;;;;;;;;;;;;;;2082027;28;20281;-80
2022/04/13 02:00:14;;;;;;;;;;;;;;;;;;2082454;28;19913;-80
2022/04/13 02:01:14;;;;;;;;;;;;;;;;;;2074134;28;20302;-80
2022/04/13 02:02:16;;;;;;;;;;;;;;;;;;2074248;28;19917;-81
2022/04/13 02:03:18;;;;;;;;;;;;;;;;;;2074042;28;19944;-80
2022/04/13 02:04:19;;;;;;;;;;;;;;;;;;2074414;28;20390;-81
2022/04/13 02:05:20;;;;;;;;;;;;;;;;;;2082586;28;19925;-80
2022/04/13 02:06:20;;;;;;;;;;;;;;;;;;2082419;28;19951;-81
2022/04/13 02:07:20;;;;;;;;;;;;;;;;;;2082444;28;20399;-80
2022/04/13 02:08:21;;;;;;;;;;;;;;;;;;2074288;28;19948;-81
2022/04/13 02:09:21;;;;;;;;;;;;;;;;;;2074220;28;19982;-80
2022/04/13 02:10:22;;;;;;;;;;;;;;;;;;2082949;28;19917;-80
2022/04/13 02:11:22;;;;;;;;;;;;;;;;;;2074252;28;20389;-80
2022/04/13 02:12:22;;;;;;;;;;;;;;;;;;2074178;28;20655;-80
2022/04/13 02:13:23;;;;;;;;;;;;;;;;;;2082663;28;19927;-81
2022/04/13 02:14:23;;;;;;;;;;;;;;;;;;2082860;28;20354;-80
2022/04/13 02:15:23;;;;;;;;;;;;;;;;;;2082917;28;19913;-80
2022/04/13 02:16:23;;;;;;;;;;;;;;;;;;2082775;28;20292;-80
2022/04/13 02:17:24;;;;;;;;;;;;;;;;;;2073930;28;20007;-80
2022/04/13 02:18:24;;;;;;;;;;;;;;;;;;2074183;28;19913;-80
2022/04/13 02:19:24;;;;;;;;;;;;;;;;;;2073787;28;19921;-81
2022/04/13 02:20:24;;;;;;;;;;;;;;;;;;2074033;28;19913;-81
2022/04/13 02:21:25;;;;;;;;;;;;;;;;;;2082640;28;19913;-80
2022/04/13 02:22:25;;;;;;;;;;;;;;;;;;2082862;28;19913;-80
2022/04/13 02:23:25;;;;;;;;;;;;;;;;;;2082604;28;19913;-81
2022/04/13 02:24:26;;;;;;;;;;;;;;;;;;2073790;28;20354;-80
2022/04/13 02:25:26;;;;;;;;;;;;;;;;;;2074050;28;19918;-80
2022/04/13 02:26:26;;;;;;;;;;;;;;;;;;2082231;28;19926;-80
2022/04/13 02:27:27;;;;;;;;;;;;;;;;;;2082322;28;19913;-81
2022/04/13 02:28:27;;;;;;;;;;;;;;;;;;2082679;28;19966;-81
2022/04/13 02:29:27;;;;;;;;;;;;;;;;;;2082869;28;19916;-80
2022/04/13 02:30:28;;;;;;;;;;;;;;;;;;2082598;28;19943;-80
2022/04/13 02:31:28;;;;;;;;;;;;;;;;;;2082380;28;19913;-80
2022/04/13 02:32:28;;;;;;;;;;;;;;;;;;2082278;28;20384;-80
2022/04/13 02:33:31;;;;;;;;;;;;;;;;;;2082578;28;20004;-80
2022/04/13 02:34:32;;;;;;;;;;;;;;;;;;2082319;28;20018;-80
2022/04/13 02:35:32;;;;;;;;;;;;;;;;;;2082083;28;19931;-80
2022/04/13 02:36:32;;;;;;;;;;;;;;;;;;2073754;28;19913;-80
2022/04/13 02:37:35;;;;;;;;;;;;;;;;;;2065925;28;19928;-80
2022/04/13 02:38:35;;;;;;;;;;;;;;;;;;2074369;28;20400;-80
2022/04/13 02:39:36;;;;;;;;;;;;;;;;;;2073821;28;19913;-80
2022/04/13 02:40:36;;;;;;;;;;;;;;;;;;2065768;28;20377;-80
2022/04/13 02:41:36;;;;;;;;;;;;;;;;;;2074027;28;20337;-80
2022/04/13 02:42:36;;;;;;;;;;;;;;;;;;2082560;28;19917;-81
2022/04/13 02:43:37;;;;;;;;;;;;;;;;;;2081794;28;19920;-80
2022/04/13 02:44:37;;;;;;;;;;;;;;;;;;2082196;28;19991;-80
2022/04/13 02:45:37;;;;;;;;;;;;;;;;;;2082447;28;19987;-80
2022/04/13 02:46:38;;;;;;;;;;;;;;;;;;2082487;28;20004;-80
2022/04/13 02:47:38;;;;;;;;;;;;;;;;;;2081973;28;19971;-80
2022/04/13 02:48:38;;;;;;;;;;;;;;;;;;2081991;28;20393;-80
2022/04/13 02:49:39;;;;;;;;;;;;;;;;;;2082438;28;19913;-80
2022/04/13 02:50:39;;;;;;;;;;;;;;;;;;2081895;28;19924;-80
2022/04/13 02:51:40;;;;;;;;;;;;;;;;;;2081987;28;19993;-80
2022/04/13 02:52:40;;;;;;;;;;;;;;;;;;2082532;28;19917;-80
2022/04/13 02:53:40;;;;;;;;;;;;;;;;;;2082218;28;20324;-80
2022/04/13 02:54:40;;;;;;;;;;;;;;;;;;2082010;28;19950;-80
2022/04/13 02:55:43;;;;;;;;;;;;;;;;;;2081875;28;20460;-80
2022/04/13 02:56:44;;;;;;;;;;;;;;;;;;2082653;28;19948;-80
2022/04/13 02:57:44;;;;;;;;;;;;;;;;;;2082495;28;19917;-80
2022/04/13 02:58:44;;;;;;;;;;;;;;;;;;2082772;28;20353;-80
2022/04/13 02:59:46;;;;;;;;;;;;;;;;;;2082332;28;19999;-80
2022/04/13 03:00:48;;;;;;;;;;;;;;;;;;2082382;28;20285;-80
2022/04/13 03:01:49;;;;;;;;;;;;;;;;;;2073789;28;19913;-81
2022/04/13 03:02:50;;;;;;;;;;;;;;;;;;2073851;28;20004;-80
2022/04/13 03:03:50;;;;;;;;;;;;;;;;;;2082283;28;19924;-79
2022/04/13 03:04:50;;;;;;;;;;;;;;;;;;2073639;28;20462;-81
2022/04/13 03:05:51;;;;;;;;;;;;;;;;;;2073643;28;20008;-81
2022/04/13 03:06:51;;;;;;;;;;;;;;;;;;2082364;28;19920;-81
2022/04/13 03:07:51;;;;;;;;;;;;;;;;;;2082368;28;19913;-80
2022/04/13 03:08:52;;;;;;;;;;;;;;;;;;2081824;28;19917;-80
2022/04/13 03:09:52;;;;;;;;;;;;;;;;;;2081397;28;20320;-80
2022/04/13 03:10:53;;;;;;;;;;;;;;;;;;2081668;28;20027;-81
2022/04/13 03:11:53;;;;;;;;;;;;;;;;;;2081691;28;19917;-80
2022/04/13 03:12:53;;;;;;;;;;;;;;;;;;2081941;28;20364;-81
2022/04/13 03:13:56;;;;;;;;;;;;;;;;;;2082216;28;19967;-79
2022/04/13 03:14:56;;;;;;;;;;;;;;;;;;2082233;28;19913;-80
2022/04/13 03:15:59;;;;;;;;;;;;;;;;;;2081751;28;20016;-80
2022/04/13 03:16:59;;;;;;;;;;;;;;;;;;2073515;28;20370;-80
2022/04/13 03:17:59;;;;;;;;;;;;;;;;;;2073566;28;19954;-81
2022/04/13 03:19:01;;;;;;;;;;;;;;;;;;2073466;28;19940;-80
2022/04/13 03:20:02;;;;;;;;;;;;;;;;;;2073651;28;19925;-81
2022/04/13 03:21:03;;;;;;;;;;;;;;;;;;2082238;28;19913;-81
2022/04/13 03:22:03;;;;;;;;;;;;;;;;;;2073605;28;19917;-80
2022/04/13 03:23:03;;;;;;;;;;;;;;;;;;2073627;28;19949;-81
2022/04/13 03:24:04;;;;;;;;;;;;;;;;;;2073438;28;19960;-80
2022/04/13 03:25:05;;;;;;;;;;;;;;;;;;2065154;28;19918;-81
2022/04/13 03:26:05;;;;;;;;;;;;;;;;;;2065281;28;19924;-82
2022/04/13 03:27:05;;;;;;;;;;;;;;;;;;2065595;28;20335;-81
2022/04/13 03:28:05;;;;;;;;;;;;;;;;;;2073601;28;19924;-80
2022/04/13 03:29:06;;;;;;;;;;;;;;;;;;2073413;28;19924;-81
2022/04/13 03:30:06;;;;;;;;;;;;;;;;;;2073515;28;20385;-81
2022/04/13 03:31:06;;;;;;;;;;;;;;;;;;2073222;28;19925;-80
2022/04/13 03:32:07;;;;;;;;;;;;;;;;;;2073386;28;19956;-80
2022/04/13 03:33:07;;;;;;;;;;;;;;;;;;2082119;28;19913;-81
2022/04/13 03:34:07;;;;;;;;;;;;;;;;;;2081958;28;20404;-82
2022/04/13 03:35:10;;;;;;;;;;;;;;;;;;2081568;28;19913;-80
2022/04/13 03:36:10;;;;;;;;;;;;;;;;;;2081669;28;20305;-80
2022/04/13 03:37:11;;;;;;;;;;;;;;;;;;2082183;28;19913;-81
2022/04/13 03:38:11;;;;;;;;;;;;;;;;;;2073412;28;19914;-81
2022/04/13 03:39:11;;;;;;;;;;;;;;;;;;2073389;28;20402;-80
2022/04/13 03:40:11;;;;;;;;;;;;;;;;;;2082099;28;19921;-81
2022/04/13 03:41:12;;;;;;;;;;;;;;;;;;2082098;28;19913;-82
2022/04/13 03:42:12;;;;;;;;;;;;;;;;;;2082074;28;20080;-81
2022/04/13 03:43:12;;;;;;;;;;;;;;;;;;2081927;28;20008;-81
2022/04/13 03:44:12;;;;;;;;;;;;;;;;;;2081987;28;19956;-81
2022/04/13 03:45:16;;;;;;;;;;;;;;;;;;2081857;28;20077;-81
2022/04/13 03:46:16;;;;;;;;;;;;;;;;;;2082064;28;20293;-81
2022/04/13 03:47:18;;;;;;;;;;;;;;;;;;2081923;28;20007;-81
2022/04/13 03:48:18;;;;;;;;;;;;;;;;;;2081589;28;19913;-80
2022/04/13 03:49:18;;;;;;;;;;;;;;;;;;2073191;28;20331;-81
2022/04/13 03:50:21;;;;;;;;;;;;;;;;;;2073393;28;19913;-81
2022/04/13 03:51:21;;;;;;;;;;;;;;;;;;2073384;28;19971;-81
2022/04/13 03:52:22;;;;;;;;;;;;;;;;;;2065137;28;20310;-80
2022/04/13 03:53:22;;;;;;;;;;;;;;;;;;2073094;28;19913;-81
2022/04/13 03:54:22;;;;;;;;;;;;;;;;;;2081350;28;19948;-80
2022/04/13 03:55:23;;;;;;;;;;;;;;;;;;2073234;28;20384;-81
2022/04/13 03:56:23;;;;;;;;;;;;;;;;;;2073295;28;19945;-81
2022/04/13 03:57:23;;;;;;;;;;;;;;;;;;2065233;28;19914;-81
2022/04/13 03:58:24;;;;;;;;;;;;;;;;;;2073317;28;19920;-81
2022/04/13 03:59:26;;;;;;;;;;;;;;;;;;2081794;28;19928;-80
2022/04/13 04:00:27;;;;;;;;;;;;;;;;;;2081365;28;19998;-80
2022/04/13 04:01:27;;;;;;;;;;;;;;;;;;2081368;28;20598;-80
2022/04/13 04:02:27;;;;;;;;;;;;;;;;;;2073396;28;19921;-80
2022/04/13 04:03:27;;;;;;;;;;;;;;;;;;2073277;28;19913;-80
2022/04/13 04:04:28;;;;;;;;;;;;;;;;;;2082040;28;19919;-80
2022/04/13 04:05:29;;;;;;;;;;;;;;;;;;2081928;28;19927;-81
2022/04/13 04:06:29;;;;;;;;;;;;;;;;;;2081899;28;19921;-81
2022/04/13 04:07:29;;;;;;;;;;;;;;;;;;2082079;28;19917;-81
2022/04/13 04:08:39;;;;;;;;;;;;;;;;;;2081528;28;19920;-81
2022/04/13 04:09:39;;;;;;;;;;;;;;;;;;2084431;28;19917;-81
2022/04/13 04:10:39;;;;;;;;;;;;;;;;;;2082045;28;20000;-81
2022/04/13 04:11:40;;;;;;;;;;;;;;;;;;2081910;28;19923;-82
2022/04/13 04:12:40;;;;;;;;;;;;;;;;;;2081730;28;20039;-80
2022/04/13 04:13:41;;;;;;;;;;;;;;;;;;2081665;28;19913;-81
2022/04/13 04:14:41;;;;;;;;;;;;;;;;;;2073165;28;20007;-80
2022/04/13 04:15:41;;;;;;;;;;;;;;;;;;2073018;28;19976;-80
2022/04/13 04:16:41;;;;;;;;;;;;;;;;;;2081638;28;19925;-81
2022/04/13 04:17:44;;;;;;;;;;;;;;;;;;2081823;28;20310;-80
2022/04/13 04:19:08;;;;;;;;;;;;;;;;;;2072912;28;19924;-81
2022/04/13 04:20:26;;;;;;;;;;;;;;;;;;2075995;28;19921;-81
2022/04/13 04:21:27;;;;;;;;;;;;;;;;;;2081475;28;19987;-80
2022/04/13 04:22:28;;;;;;;;;;;;;;;;;;2081687;28;19913;-80
2022/04/13 04:23:37;;;;;;;;;;;;;;;;;;2081636;28;20398;-80
2022/04/13 04:24:37;;;;;;;;;;;;;;;;;;2081704;28;19952;-81
2022/04/13 04:25:38;;;;;;;;;;;;;;;;;;2081641;28;19924;-80
2022/04/13 04:26:38;;;;;;;;;;;;;;;;;;2081824;28;20000;-81
2022/04/13 04:27:47;;;;;;;;;;;;;;;;;;2081770;28;20341;-81
2022/04/13 04:28:50;;;;;;;;;;;;;;;;;;2081542;28;19924;-80
2022/04/13 04:30:08;;;;;;;;;;;;;;;;;;2073009;28;20301;-80
2022/04/13 04:31:13;;;;;;;;;;;;;;;;;;2075331;28;19913;-80
2022/04/13 04:32:16;;;;;;;;;;;;;;;;;;2073117;28;19957;-80
2022/04/13 04:33:16;;;;;;;;;;;;;;;;;;2065127;28;19914;-81
2022/04/13 04:34:25;;;;;;;;;;;;;;;;;;2072977;28;19913;-80
2022/04/13 04:35:28;;;;;;;;;;;;;;;;;;2073148;28;19914;-81
2022/04/13 04:36:38;;;;;;;;;;;;;;;;;;2065231;28;19914;-82
2022/04/13 04:37:46;;;;;;;;;;;;;;;;;;2076470;28;19921;-81
2022/04/13 04:38:49;;;;;;;;;;;;;;;;;;2081692;28;19962;-81
2022/04/13 04:39:52;;;;;;;;;;;;;;;;;;2081695;28;20361;-82
2022/04/13 04:40:57;;;;;;;;;;;;;;;;;;2081982;28;19914;-83
2022/04/13 04:41:57;;;;;;;;;;;;;;;;;;2081679;28;19924;-81
2022/04/13 04:43:01;;;;;;;;;;;;;;;;;;2081730;28;20016;-81
2022/04/13 04:44:03;;;;;;;;;;;;;;;;;;2081438;28;19917;-81
2022/04/13 04:45:04;;;;;;;;;;;;;;;;;;2081580;28;19975;-80
2022/04/13 04:46:04;;;;;;;;;;;;;;;;;;2081837;28;20362;-82
2022/04/13 04:47:04;;;;;;;;;;;;;;;;;;2073068;28;19960;-81
2022/04/13 04:48:07;;;;;;;;;;;;;;;;;;2073001;28;19952;-81
2022/04/13 04:49:08;;;;;;;;;;;;;;;;;;2072783;28;19913;-81
2022/04/13 04:50:16;;;;;;;;;;;;;;;;;;2075338;28;19967;-80
2022/04/13 04:51:16;;;;;;;;;;;;;;;;;;2066084;28;19952;-80
2022/04/13 04:52:16;;;;;;;;;;;;;;;;;;2073408;28;20377;-81
2022/04/13 04:53:20;;;;;;;;;;;;;;;;;;2069330;28;19976;-82
2022/04/13 04:54:20;;;;;;;;;;;;;;;;;;2066665;28;19997;-82
2022/04/13 04:55:28;;;;;;;;;;;;;;;;;;2073835;28;20317;-81
2022/04/13 04:56:29;;;;;;;;;;;;;;;;;;2080500;28;20011;-82
2022/04/13 04:57:32;;;;;;;;;;;;;;;;;;2072412;28;20012;-81
2022/04/13 04:58:34;;;;;;;;;;;;;;;;;;2072711;28;19914;-80
2022/04/13 04:59:37;;;;;;;;;;;;;;;;;;2081431;28;19913;-80
2022/04/13 05:00:39;;;;;;;;;;;;;;;;;;2080985;28;20412;-81
2022/04/13 05:01:39;;;;;;;;;;;;;;;;;;2081147;28;19917;-81
2022/04/13 05:02:39;;;;;;;;;;;;;;;;;;2089770;28;19935;-81
2022/04/13 05:03:43;;;;;;;;;;;;;;;;;;2089732;28;20027;-81
2022/04/13 05:04:43;;;;;;;;;;;;;;;;;;2080908;28;19913;-81
2022/04/13 05:05:43;;;;;;;;;;;;;;;;;;2072881;28;19921;-81
2022/04/13 05:06:43;;;;;;;;;;;;;;;;;;2081036;28;19978;-78
2022/04/13 05:07:44;;;;;;;;;;;;;;;;;;2081089;28;19965;-78
2022/04/13 05:08:44;;;;;;;;;;;;;;;;;;2080972;28;20366;-77
2022/04/13 05:09:45;;;;;;;;;;;;;;;;;;2080990;28;19913;-78
2022/04/13 05:10:50;;;;;;;;;;;;;;;;;;2080963;28;19917;-78
2022/04/13 05:11:51;;;;;;;;;;;;;;;;;;2084500;28;19928;-78
2022/04/13 05:12:57;;;;;;;;;;;;;;;;;;2089965;28;19944;-78
2022/04/13 05:14:03;;;;;;;;;;;;;;;;;;2089643;28;19913;-78
2022/04/13 05:15:03;;;;;;;;;;;;;;;;;;2092594;28;20339;-78
2022/04/13 05:16:03;;;;;;;;;;;;;;;;;;2081142;28;19917;-78
2022/04/13 05:17:06;;;;;;;;;;;;;;;;;;2080700;28;19917;-79
2022/04/13 05:18:06;;;;;;;;;;;;;;;;;;2080279;28;19987;-78
2022/04/13 05:19:09;;;;;;;;;;;;;;;;;;2072218;28;19917;-79
2022/04/13 05:20:10;;;;;;;;;;;;;;;;;;2080885;28;19969;-79
2022/04/13 05:21:11;;;;;;;;;;;;;;;;;;2089580;28;19919;-78
2022/04/13 05:22:11;;;;;;;;;;;;;;;;;;2089759;28;19912;-78
2022/04/13 05:23:16;;;;;;;;;;;;;;;;;;2089781;28;20455;-77
2022/04/13 05:24:16;;;;;;;;;;;;;;;;;;2089518;28;20377;-81
2022/04/13 05:25:17;;;;;;;;;;;;;;;;;;2078895;28;19967;-81
2022/04/13 05:26:18;;;;;;;;;;;;;;;;;;2077109;28;20493;-81
2022/04/13 05:27:18;;;;;;;;;;;;;;;;;;2072784;28;19914;-82
2022/04/13 05:28:19;;;;;;;;;;;;;;;;;;2072913;28;19952;-81
2022/04/13 05:29:21;;;;;;;;;;;;;;;;;;2081681;28;19913;-82
2022/04/13 05:30:21;;;;;;;;;;;;;;;;;;2081432;28;19913;-82
2022/04/13 05:31:22;;;;;;;;;;;;;;;;;;2081544;28;19913;-81
2022/04/13 05:32:25;;;;;;;;;;;;;;;;;;2072412;28;19914;-82
2022/04/13 05:33:26;;;;;;;;;;;;;;;;;;2073402;28;20286;-82
2022/04/13 05:34:26;;;;;;;;;;;;;;;;;;2080812;28;19946;-83
2022/04/13 05:35:27;;;;;;;;;;;;;;;;;;2082724;28;19913;-83
2022/04/13 05:36:28;;;;;;;;;;;;;;;;;;2085255;28;19924;-82
2022/04/13 05:37:28;;;;;;;;;;;;;;;;;;2083367;28;19913;-81
2022/04/13 05:38:36;;;;;;;;;;;;;;;;;;2083138;28;19913;-82
2022/04/13 05:39:38;;;;;;;;;;;;;;;;;;2085705;28;19920;-82
2022/04/13 05:40:41;;;;;;;;;;;;;;;;;;2083100;28;19921;-82
2022/04/13 05:41:42;;;;;;;;;;;;;;;;;;2082625;28;19917;-82
2022/04/13 05:42:42;;;;;;;;;;;;;;;;;;2082558;28;19940;-82
2022/04/13 05:43:45;;;;;;;;;;;;;;;;;;2074435;28;20384;-82
2022/04/13 05:44:45;;;;;;;;;;;;;;;;;;2074113;28;19921;-82
2022/04/13 05:45:45;;;;;;;;;;;;;;;;;;2082335;28;20267;-82
2022/04/13 05:46:48;;;;;;;;;;;;;;;;;;2081846;28;19917;-82
2022/04/13 05:47:48;;;;;;;;;;;;;;;;;;2081918;28;20005;-82
2022/04/13 05:48:48;;;;;;;;;;;;;;;;;;2082411;28;19940;-82
2022/04/13 05:49:48;;;;;;;;;;;;;;;;;;2082445;28;19923;-82
2022/04/13 05:50:50;;;;;;;;;;;;;;;;;;2082281;28;20267;-83
2022/04/13 05:51:51;;;;;;;;;;;;;;;;;;2082454;28;19913;-81
2022/04/13 05:52:53;;;;;;;;;;;;;;;;;;2082479;28;19924;-82
2022/04/13 05:53:54;;;;;;;;;;;;;;;;;;2082009;28;19952;-82
2022/04/13 05:54:54;;;;;;;;;;;;;;;;;;2081990;28;20273;-81
2022/04/13 05:55:57;;;;;;;;;;;;;;;;;;2082495;28;19974;-82
2022/04/13 05:56:58;;;;;;;;;;;;;;;;;;2082435;28;19913;-82
2022/04/13 05:57:58;;;;;;;;;;;;;;;;;;2073964;28;20302;-82
2022/04/13 05:58:58;;;;;;;;;;;;;;;;;;2073947;28;19972;-82
2022/04/13 05:59:59;;;;;;;;;;;;;;;;;;2073931;28;19924;-82
2022/04/13 06:00:59;;;;;;;;;;;;;;;;;;2074336;28;19913;-83
2022/04/13 06:02:02;;;;;;;;;;;;;;;;;;2082728;28;19998;-82
2022/04/13 06:03:03;;;;;;;;;;;;;;;;;;2082867;28;20024;-83
2022/04/13 06:04:03;;;;;;;;;;;;;;;;;;2082799;28;20281;-83
2022/04/13 06:05:04;;;;;;;;;;;;;;;;;;2082870;28;19917;-83
2022/04/13 06:06:04;;;;;;;;;;;;;;;;;;2082871;28;19913;-83
2022/04/13 06:07:05;;;;;;;;;;;;;;;;;;2082900;28;19913;-82
2022/04/13 06:08:05;;;;;;;;;;;;;;;;;;2082790;28;19913;-82
2022/04/13 06:09:05;;;;;;;;;;;;;;;;;;2083004;28;20250;-83
2022/04/13 06:10:06;;;;;;;;;;;;;;;;;;2074219;28;19917;-82
2022/04/13 06:11:06;;;;;;;;;;;;;;;;;;2074459;28;19914;-82
2022/04/13 06:12:07;;;;;;;;;;;;;;;;;;2082791;28;20250;-82
2022/04/13 06:13:07;;;;;;;;;;;;;;;;;;2073861;28;19917;-82
2022/04/13 06:14:07;;;;;;;;;;;;;;;;;;2066036;28;19983;-82
2022/04/13 06:15:08;;;;;;;;;;;;;;;;;;2074059;28;19956;-81
2022/04/13 06:16:09;;;;;;;;;;;;;;;;;;2082773;28;19955;-81
2022/04/13 06:17:09;;;;;;;;;;;;;;;;;;2082499;28;19920;-81
2022/04/13 06:18:09;;;;;;;;;;;;;;;;;;2082586;28;20166;-82
2022/04/13 06:19:10;;;;;;;;;;;;;;;;;;2082703;28;20411;-81
2022/04/13 06:20:11;;;;;;;;;;;;;;;;;;2082113;28;19955;-81
2022/04/13 06:21:11;;;;;;;;;;;;;;;;;;2073509;28;19948;-82
2022/04/13 06:22:11;;;;;;;;;;;;;;;;;;2074143;28;19917;-82
2022/04/13 06:23:11;;;;;;;;;;;;;;;;;;2082719;28;20376;-82
2022/04/13 06:24:12;;;;;;;;;;;;;;;;;;2082709;28;19917;-81
2022/04/13 06:25:12;;;;;;;;;;;;;;;;;;2074116;28;19959;-81
2022/04/13 06:26:15;;;;;;;;;;;;;;;;;;2074158;28;19913;-82
2022/04/13 06:27:15;;;;;;;;;;;;;;;;;;2074020;28;20298;-81
2022/04/13 06:28:15;;;;;;;;;;;;;;;;;;2074064;28;19957;-81
2022/04/13 06:29:15;;;;;;;;;;;;;;;;;;2082551;28;20369;-82
2022/04/13 06:30:16;;;;;;;;;;;;;;;;;;2082234;28;19913;-82
2022/04/13 06:31:16;;;;;;;;;;;;;;;;;;2073884;28;19914;-81
2022/04/13 06:32:16;;;;;;;;;;;;;;;;;;2065882;28;20425;-79
2022/04/13 06:33:18;;;;;;;;;;;;;;;;;;2074054;28;19920;-84
2022/04/13 06:34:19;;;;;;;;;;;;;;;;;;2082187;28;19996;-83
2022/04/13 06:35:19;;;;;;;;;;;;;;;;;;2082251;28;19913;-82
2022/04/13 06:36:19;;;;;;;;;;;;;;;;;;2074006;28;19917;-83
2022/04/13 06:37:19;;;;;;;;;;;;;;;;;;2073983;28;20387;-83
2022/04/13 06:38:20;;;;;;;;;;;;;;;;;;2082666;28;20010;-82
2022/04/13 06:39:20;;;;;;;;;;;;;;;;;;2082503;28;19913;-83
2022/04/13 06:40:20;;;;;;;;;;;;;;;;;;2082628;28;20362;-82
2022/04/13 06:41:21;;;;;;;;;;;;;;;;;;2082634;28;20012;-82
2022/04/13 06:42:22;;;;;;;;;;;;;;;;;;2082076;28;19948;-84
2022/04/13 06:43:22;;;;;;;;;;;;;;;;;;2082130;28;19913;-83
2022/04/13 06:44:22;;;;;;;;;;;;;;;;;;2082418;28;19946;-82
2022/04/13 06:45:23;;;;;;;;;;;;;;;;;;2082064;28;19983;-82
2022/04/13 06:46:23;;;;;;;;;;;;;;;;;;2082002;28;20400;-82
2022/04/13 06:47:24;;;;;;;;;;;;;;;;;;2074031;28;19917;-83
2022/04/13 06:48:24;;;;;;;;;;;;;;;;;;2073953;28;19920;-82
2022/04/13 06:49:25;;;;;;;;;;;;;;;;;;2073822;28;20298;-83
2022/04/13 06:50:25;;;;;;;;;;;;;;;;;;2073911;28;19928;-83
2022/04/13 06:51:25;;;;;;;;;;;;;;;;;;2065856;28;19924;-83
2022/04/13 06:52:26;;;;;;;;;;;;;;;;;;2073967;28;19983;-82
2022/04/13 06:53:26;;;;;;;;;;;;;;;;;;2073787;28;20161;-82
2022/04/13 06:54:27;;;;;;;;;;;;;;;;;;2073924;28;19983;-82
2022/04/13 06:55:28;;;;;;;;;;;;;;;;;;2073822;28;20032;-82
2022/04/13 06:56:28;;;;;;;;;;;;;;;;;;2065984;28;20339;-83
2022/04/13 06:57:28;;;;;;;;;;;;;;;;;;2073508;28;19913;-83
2022/04/13 06:58:28;;;;;;;;;;;;;;;;;;2073820;28;19914;-82
2022/04/13 06:59:29;;;;;;;;;;;;;;;;;;2073930;28;19924;-83